sensor_id;sensor_type;location;lat;lon;timestamp;pressure;altitude;pressure_sealevel;temperature;humidity
55759;BME280;41678;52.126;20.664;2023-04-07T00:02:09;100237.06;;;2.89;91.39
55759;BME280;41678;52.126;20.664;2023-04-07T00:07:28;100229.97;;;2.82;90.62
55759;BME280;41678;52.126;20.664;2023-04-07T00:12:47;100230.13;;;2.90;91.49
55759;BME280;41678;52.126;20.664;2023-04-07T00:18:07;100218.06;;;2.93;90.85
55759;BME280;41678;52.126;20.664;2023-04-07T00:23:27;100220.63;;;2.92;90.94
55759;BME280;41678;52.126;20.664;2023-04-07T00:28:46;100221.47;;;2.91;91.12
55759;BME280;41678;52.126;20.664;2023-04-07T00:34:06;100222.34;;;2.91;90.97
55759;BME280;41678;52.126;20.664;2023-04-07T00:39:25;100229.31;;;2.92;91.08
55759;BME280;41678;52.126;20.664;2023-04-07T00:44:46;100215.50;;;2.96;91.21
55759;BME280;41678;52.126;20.664;2023-04-07T00:50:06;100208.59;;;2.98;90.99
55759;BME280;41678;52.126;20.664;2023-04-07T00:55:26;100212.06;;;2.97;91.30
55759;BME280;41678;52.126;20.664;2023-04-07T01:01:17;100199.91;;;2.96;90.81
55759;BME280;41678;52.126;20.664;2023-04-07T01:06:42;100188.63;;;2.96;91.09
55759;BME280;41678;52.126;20.664;2023-04-07T01:12:14;100190.47;;;3.03;91.45
55759;BME280;41678;52.126;20.664;2023-04-07T01:17:52;100195.69;;;3.03;91.09
55759;BME280;41678;52.126;20.664;2023-04-07T01:23:22;100183.44;;;2.96;90.91
55759;BME280;41678;52.126;20.664;2023-04-07T01:34:15;100181.72;;;2.98;90.76
55759;BME280;41678;52.126;20.664;2023-04-07T01:39:37;100185.25;;;3.02;91.02
55759;BME280;41678;52.126;20.664;2023-04-07T01:44:57;100177.53;;;3.06;91.19
55759;BME280;41678;52.126;20.664;2023-04-07T01:50:19;100186.31;;;3.13;91.03
55759;BME280;41678;52.126;20.664;2023-04-07T01:55:40;100176.94;;;3.21;91.48
55759;BME280;41678;52.126;20.664;2023-04-07T02:01:02;100179.44;;;3.18;91.11
55759;BME280;41678;52.126;20.664;2023-04-07T02:06:28;100179.56;;;3.24;91.21
55759;BME280;41678;52.126;20.664;2023-04-07T02:11:51;100184.66;;;3.18;91.68
55759;BME280;41678;52.126;20.664;2023-04-07T02:17:15;100173.44;;;3.19;91.26
55759;BME280;41678;52.126;20.664;2023-04-07T02:22:37;100176.06;;;3.24;91.56
55759;BME280;41678;52.126;20.664;2023-04-07T02:27:58;100176.94;;;3.21;91.19
55759;BME280;41678;52.126;20.664;2023-04-07T02:33:18;100177.78;;;3.20;91.15
55759;BME280;41678;52.126;20.664;2023-04-07T02:38:38;100173.47;;;3.24;90.87
55759;BME280;41678;52.126;20.664;2023-04-07T02:43:59;100174.38;;;3.24;91.02
55759;BME280;41678;52.126;20.664;2023-04-07T02:49:18;100170.94;;;3.29;91.12
55759;BME280;41678;52.126;20.664;2023-04-07T02:54:38;100166.66;;;3.31;91.36
55759;BME280;41678;52.126;20.664;2023-04-07T02:59:58;100169.25;;;3.31;90.88
55759;BME280;41678;52.126;20.664;2023-04-07T03:05:27;100165.88;;;3.35;91.03
55759;BME280;41678;52.126;20.664;2023-04-07T03:10:47;100161.53;;;3.35;90.87
55759;BME280;41678;52.126;20.664;2023-04-07T03:16:07;100168.47;;;3.36;91.26
55759;BME280;41678;52.126;20.664;2023-04-07T03:21:37;100167.66;;;3.39;91.13
55759;BME280;41678;52.126;20.664;2023-04-07T03:26:56;100174.56;;;3.38;91.16
55759;BME280;41678;52.126;20.664;2023-04-07T03:32:27;100166.75;;;3.37;90.89
55759;BME280;41678;52.126;20.664;2023-04-07T03:37:47;100169.50;;;3.46;91.07
55759;BME280;41678;52.126;20.664;2023-04-07T03:43:10;100169.47;;;3.45;90.82
55759;BME280;41678;52.126;20.664;2023-04-07T03:48:33;100169.56;;;3.49;90.68
55759;BME280;41678;52.126;20.664;2023-04-07T03:54:00;100173.84;;;3.47;91.01
55759;BME280;41678;52.126;20.664;2023-04-07T03:59:27;100164.41;;;3.54;91.17
55759;BME280;41678;52.126;20.664;2023-04-07T04:04:53;100164.38;;;3.51;90.68
55759;BME280;41678;52.126;20.664;2023-04-07T04:10:15;100171.41;;;3.57;91.16
55759;BME280;41678;52.126;20.664;2023-04-07T04:15:39;100171.34;;;3.53;90.77
55759;BME280;41678;52.126;20.664;2023-04-07T04:21:07;100172.25;;;3.56;90.84
55759;BME280;41678;52.126;20.664;2023-04-07T04:26:28;100177.50;;;3.59;91.10
55759;BME280;41678;52.126;20.664;2023-04-07T04:31:53;100178.38;;;3.61;90.96
55759;BME280;41678;52.126;20.664;2023-04-07T04:37:13;100179.28;;;3.61;90.74
55759;BME280;41678;52.126;20.664;2023-04-07T04:42:36;100184.53;;;3.64;90.67
55759;BME280;41678;52.126;20.664;2023-04-07T04:47:56;100188.97;;;3.70;90.95
55759;BME280;41678;52.126;20.664;2023-04-07T04:53:16;100180.28;;;3.71;90.60
55759;BME280;41678;52.126;20.664;2023-04-07T04:58:44;100181.19;;;3.73;91.11
55759;BME280;41678;52.126;20.664;2023-04-07T05:04:28;100192.53;;;3.78;91.06
55759;BME280;41678;52.126;20.664;2023-04-07T05:09:55;100183.91;;;3.81;90.85
55759;BME280;41678;52.126;20.664;2023-04-07T05:15:15;100182.28;;;3.91;90.92
55759;BME280;41678;52.126;20.664;2023-04-07T05:20:37;100178.84;;;3.92;90.99
55759;BME280;41678;52.126;20.664;2023-04-07T05:25:59;100185.78;;;3.93;90.92
55759;BME280;41678;52.126;20.664;2023-04-07T05:31:19;100187.63;;;3.97;91.05
55759;BME280;41678;52.126;20.664;2023-04-07T05:36:41;100188.50;;;4.01;91.42
55759;BME280;41678;52.126;20.664;2023-04-07T05:42:01;100185.06;;;4.03;91.08
55759;BME280;41678;52.126;20.664;2023-04-07T05:47:22;100192.13;;;4.10;91.16
55759;BME280;41678;52.126;20.664;2023-04-07T05:52:43;100198.28;;;4.16;90.72
55759;BME280;41678;52.126;20.664;2023-04-07T05:58:13;100186.16;;;4.21;91.37
55759;BME280;41678;52.126;20.664;2023-04-07T06:03:36;100187.09;;;4.24;91.35
55759;BME280;41678;52.126;20.664;2023-04-07T06:09:13;100181.09;;;4.30;91.66
55759;BME280;41678;52.126;20.664;2023-04-07T06:14:32;100190.78;;;4.42;92.10
55759;BME280;41678;52.126;20.664;2023-04-07T06:19:53;100194.31;;;4.46;92.12
55759;BME280;41678;52.126;20.664;2023-04-07T06:25:12;100188.38;;;4.61;92.43
55759;BME280;41678;52.126;20.664;2023-04-07T06:30:33;100185.84;;;4.64;92.56
55759;BME280;41678;52.126;20.664;2023-04-07T06:35:53;100183.38;;;4.81;93.00
55759;BME280;41678;52.126;20.664;2023-04-07T06:41:12;100179.06;;;4.81;92.76
55759;BME280;41678;52.126;20.664;2023-04-07T06:46:35;100178.28;;;4.92;93.06
55759;BME280;41678;52.126;20.664;2023-04-07T06:51:55;100173.09;;;4.96;93.23
55759;BME280;41678;52.126;20.664;2023-04-07T06:57:15;100175.72;;;5.00;93.02
55759;BME280;41678;52.126;20.664;2023-04-07T07:02:35;100174.84;;;4.97;92.67
55759;BME280;41678;52.126;20.664;2023-04-07T07:07:55;100171.44;;;5.05;92.81
55759;BME280;41678;52.126;20.664;2023-04-07T07:13:15;100185.44;;;5.13;93.02
55759;BME280;41678;52.126;20.664;2023-04-07T07:18:35;100195.03;;;5.16;92.84
55759;BME280;41678;52.126;20.664;2023-04-07T07:23:55;100181.16;;;5.18;92.67
55759;BME280;41678;52.126;20.664;2023-04-07T07:29:14;100178.59;;;5.28;92.88
55759;BME280;41678;52.126;20.664;2023-04-07T07:34:34;100183.06;;;5.39;93.13
55759;BME280;41678;52.126;20.664;2023-04-07T07:39:54;100182.22;;;5.44;93.09
55759;BME280;41678;52.126;20.664;2023-04-07T07:45:14;100177.91;;;5.49;93.04
55759;BME280;41678;52.126;20.664;2023-04-07T07:50:35;100183.19;;;5.58;93.03
55759;BME280;41678;52.126;20.664;2023-04-07T07:55:55;100194.59;;;5.68;93.07
55759;BME280;41678;52.126;20.664;2023-04-07T08:01:15;100199.84;;;5.76;93.01
55759;BME280;41678;52.126;20.664;2023-04-07T08:06:35;100194.66;;;5.82;93.60
55759;BME280;41678;52.126;20.664;2023-04-07T08:11:56;100200.84;;;5.92;93.40
55759;BME280;41678;52.126;20.664;2023-04-07T08:17:15;100199.22;;;6.08;93.88
55759;BME280;41678;52.126;20.664;2023-04-07T08:22:35;100194.91;;;6.15;94.06
55759;BME280;41678;52.126;20.664;2023-04-07T08:27:55;100193.16;;;6.20;94.26
55759;BME280;41678;52.126;20.664;2023-04-07T08:33:14;100190.63;;;6.31;94.74
55759;BME280;41678;52.126;20.664;2023-04-07T08:38:34;100196.75;;;6.36;94.41
55759;BME280;41678;52.126;20.664;2023-04-07T08:43:55;100195.94;;;6.49;94.63
55759;BME280;41678;52.126;20.664;2023-04-07T08:49:16;100199.44;;;6.58;94.83
55759;BME280;41678;52.126;20.664;2023-04-07T08:54:37;100193.38;;;6.73;95.25
55759;BME280;41678;52.126;20.664;2023-04-07T09:00:01;100193.41;;;6.77;95.07
55759;BME280;41678;52.126;20.664;2023-04-07T09:05:24;100195.16;;;6.92;95.55
55759;BME280;41678;52.126;20.664;2023-04-07T09:10:44;100184.72;;;6.91;95.57
55759;BME280;41678;52.126;20.664;2023-04-07T09:16:04;100191.72;;;7.07;95.55
55759;BME280;41678;52.126;20.664;2023-04-07T09:21:25;100185.59;;;7.07;95.29
55759;BME280;41678;52.126;20.664;2023-04-07T09:26:45;100179.47;;;7.19;95.39
55759;BME280;41678;52.126;20.664;2023-04-07T09:32:05;100187.34;;;7.20;95.48
55759;BME280;41678;52.126;20.664;2023-04-07T09:37:25;100182.09;;;7.27;95.50
55759;BME280;41678;52.126;20.664;2023-04-07T09:42:46;100189.97;;;7.42;95.70
55759;BME280;41678;52.126;20.664;2023-04-07T09:48:07;100196.97;;;7.46;96.00
55759;BME280;41678;52.126;20.664;2023-04-07T09:59:00;100182.13;;;7.48;95.71
55759;BME280;41678;52.126;20.664;2023-04-07T10:04:23;100186.50;;;7.59;95.83
55759;BME280;41678;52.126;20.664;2023-04-07T10:09:43;100189.97;;;7.61;95.92
55759;BME280;41678;52.126;20.664;2023-04-07T10:15:02;100195.19;;;7.67;95.71
55759;BME280;41678;52.126;20.664;2023-04-07T10:20:23;100195.19;;;7.78;96.02
55759;BME280;41678;52.126;20.664;2023-04-07T10:25:43;100188.19;;;7.82;95.71
55759;BME280;41678;52.126;20.664;2023-04-07T10:31:04;100186.41;;;7.87;95.70
55759;BME280;41678;52.126;20.664;2023-04-07T10:36:24;100195.19;;;7.89;96.06
55759;BME280;41678;52.126;20.664;2023-04-07T10:53:17;100196.00;;;8.05;95.65
55759;BME280;41678;52.126;20.664;2023-04-07T10:58:37;100201.25;;;8.10;95.88
55759;BME280;41678;52.126;20.664;2023-04-07T11:03:58;100206.47;;;8.14;95.94
55759;BME280;41678;52.126;20.664;2023-04-07T11:09:18;100211.69;;;8.20;96.14
55759;BME280;41678;52.126;20.664;2023-04-07T11:14:38;100209.06;;;8.20;95.83
55759;BME280;41678;52.126;20.664;2023-04-07T11:20:00;100209.06;;;8.27;95.83
55759;BME280;41678;52.126;20.664;2023-04-07T11:25:20;100215.13;;;8.33;95.37
55759;BME280;41678;52.126;20.664;2023-04-07T11:30:48;100209.91;;;8.35;95.85
55759;BME280;41678;52.126;20.664;2023-04-07T11:36:08;100211.63;;;8.39;95.51
55759;BME280;41678;52.126;20.664;2023-04-07T11:41:29;100214.22;;;8.47;95.84
55759;BME280;41678;52.126;20.664;2023-04-07T11:46:57;100205.47;;;8.48;96.10
55759;BME280;41678;52.126;20.664;2023-04-07T11:52:17;100212.50;;;8.52;96.04
55759;BME280;41678;52.126;20.664;2023-04-07T11:57:37;100202.00;;;8.52;96.20
55759;BME280;41678;52.126;20.664;2023-04-07T12:03:08;100208.94;;;8.59;96.28
55759;BME280;41678;52.126;20.664;2023-04-07T12:08:39;100208.94;;;8.62;96.70
55759;BME280;41678;52.126;20.664;2023-04-07T12:13:59;100202.81;;;8.65;96.45
55759;BME280;41678;52.126;20.664;2023-04-07T12:19:19;100210.66;;;8.70;96.18
55759;BME280;41678;52.126;20.664;2023-04-07T12:24:38;100208.00;;;8.76;96.51
55759;BME280;41678;52.126;20.664;2023-04-07T12:29:57;100214.09;;;8.78;96.72
55759;BME280;41678;52.126;20.664;2023-04-07T12:35:17;100223.69;;;8.87;96.62
55759;BME280;41678;52.126;20.664;2023-04-07T12:40:37;100218.41;;;8.93;96.42
55759;BME280;41678;52.126;20.664;2023-04-07T12:45:57;100228.00;;;8.99;96.84
55759;BME280;41678;52.126;20.664;2023-04-07T12:51:16;100229.72;;;9.03;96.73
55759;BME280;41678;52.126;20.664;2023-04-07T12:56:36;100227.94;;;9.08;96.67
55759;BME280;41678;52.126;20.664;2023-04-07T13:01:56;100230.50;;;9.20;97.26
55759;BME280;41678;52.126;20.664;2023-04-07T13:07:16;100241.84;;;9.26;97.64
55759;BME280;41678;52.126;20.664;2023-04-07T13:12:36;100260.09;;;9.46;98.52
55759;BME280;41678;52.126;20.664;2023-04-07T13:17:56;100249.56;;;9.47;98.65
55759;BME280;41678;52.126;20.664;2023-04-07T13:23:15;100247.78;;;9.53;98.44
55759;BME280;41678;52.126;20.664;2023-04-07T13:28:35;100261.78;;;9.56;98.85
55759;BME280;41678;52.126;20.664;2023-04-07T13:33:54;100267.91;;;9.57;98.57
55759;BME280;41678;52.126;20.664;2023-04-07T13:39:14;100273.09;;;9.61;98.47
55759;BME280;41678;52.126;20.664;2023-04-07T13:44:33;100271.38;;;9.62;98.73
55759;BME280;41678;52.126;20.664;2023-04-07T13:49:55;100266.09;;;9.62;98.54
55759;BME280;41678;52.126;20.664;2023-04-07T13:55:15;100268.75;;;9.62;98.36
55759;BME280;41678;52.126;20.664;2023-04-07T14:00:35;100265.25;;;9.58;97.90
55759;BME280;41678;52.126;20.664;2023-04-07T14:05:56;100263.50;;;9.57;97.68
55759;BME280;41678;52.126;20.664;2023-04-07T14:11:20;100274.91;;;9.58;97.71
55759;BME280;41678;52.126;20.664;2023-04-07T14:16:43;100270.50;;;9.58;97.71
55759;BME280;41678;52.126;20.664;2023-04-07T14:22:03;100277.47;;;9.64;97.76
55759;BME280;41678;52.126;20.664;2023-04-07T14:27:22;100280.13;;;9.59;97.62
55759;BME280;41678;52.126;20.664;2023-04-07T14:32:42;100286.31;;;9.57;97.10
55759;BME280;41678;52.126;20.664;2023-04-07T14:38:01;100288.06;;;9.58;96.78
55759;BME280;41678;52.126;20.664;2023-04-07T14:43:21;100308.22;;;9.53;96.73
55759;BME280;41678;52.126;20.664;2023-04-07T14:48:40;100321.41;;;9.46;96.34
55759;BME280;41678;52.126;20.664;2023-04-07T14:54:00;100326.72;;;9.37;96.42
55759;BME280;41678;52.126;20.664;2023-04-07T14:59:19;100338.16;;;9.30;96.01
55759;BME280;41678;52.126;20.664;2023-04-07T15:04:39;100338.22;;;9.19;95.75
55759;BME280;41678;52.126;20.664;2023-04-07T15:09:59;100336.53;;;9.04;95.60
55759;BME280;41678;52.126;20.664;2023-04-07T15:15:19;100336.56;;;8.96;95.33
55759;BME280;41678;52.126;20.664;2023-04-07T15:20:39;100359.38;;;8.80;95.21
55759;BME280;41678;52.126;20.664;2023-04-07T15:25:59;100353.25;;;8.75;95.39
55759;BME280;41678;52.126;20.664;2023-04-07T15:31:19;100349.81;;;8.62;95.47
55759;BME280;41678;52.126;20.664;2023-04-07T15:36:41;100366.38;;;8.70;95.27
55759;BME280;41678;52.126;20.664;2023-04-07T15:42:10;100360.28;;;8.60;94.86
55759;BME280;41678;52.126;20.664;2023-04-07T15:47:31;100368.19;;;8.57;95.11
55759;BME280;41678;52.126;20.664;2023-04-07T15:52:50;100375.19;;;8.55;95.38
55759;BME280;41678;52.126;20.664;2023-04-07T15:58:10;100377.81;;;8.54;94.89
55759;BME280;41678;52.126;20.664;2023-04-07T16:03:30;100377.78;;;8.49;95.23
55759;BME280;41678;52.126;20.664;2023-04-07T16:08:50;100386.53;;;8.49;95.03
55759;BME280;41678;52.126;20.664;2023-04-07T16:14:09;100378.66;;;8.42;95.05
55759;BME280;41678;52.126;20.664;2023-04-07T16:19:29;100387.41;;;8.41;94.81
55759;BME280;41678;52.126;20.664;2023-04-07T16:24:49;100393.53;;;8.43;94.80
55759;BME280;41678;52.126;20.664;2023-04-07T16:30:10;100401.41;;;8.38;94.82
55759;BME280;41678;52.126;20.664;2023-04-07T16:35:32;100403.16;;;8.36;94.61
55759;BME280;41678;52.126;20.664;2023-04-07T16:40:51;100414.53;;;8.29;94.27
55759;BME280;41678;52.126;20.664;2023-04-07T16:46:11;100418.03;;;8.26;94.00
55759;BME280;41678;52.126;20.664;2023-04-07T16:51:30;100431.13;;;8.17;94.07
55759;BME280;41678;52.126;20.664;2023-04-07T16:56:50;100450.38;;;8.22;94.15
55759;BME280;41678;52.126;20.664;2023-04-07T17:02:11;100455.59;;;8.11;93.79
55759;BME280;41678;52.126;20.664;2023-04-07T17:07:31;100459.09;;;7.99;93.55
55759;BME280;41678;52.126;20.664;2023-04-07T17:12:51;100476.56;;;7.94;93.61
55759;BME280;41678;52.126;20.664;2023-04-07T17:18:14;100487.91;;;7.87;93.41
55759;BME280;41678;52.126;20.664;2023-04-07T17:23:34;100493.09;;;7.73;93.85
55759;BME280;41678;52.126;20.664;2023-04-07T17:28:53;100499.19;;;7.65;93.96
55759;BME280;41678;52.126;20.664;2023-04-07T17:34:13;100502.63;;;7.54;93.64
55759;BME280;41678;52.126;20.664;2023-04-07T17:39:32;100515.75;;;7.55;93.47
55759;BME280;41678;52.126;20.664;2023-04-07T17:44:52;100524.47;;;7.49;93.58
55759;BME280;41678;52.126;20.664;2023-04-07T17:50:12;100526.16;;;7.40;93.29
55759;BME280;41678;52.126;20.664;2023-04-07T17:55:33;100535.72;;;7.33;93.25
55759;BME280;41678;52.126;20.664;2023-04-07T18:00:52;100540.91;;;7.27;93.04
55759;BME280;41678;52.126;20.664;2023-04-07T18:06:15;100554.84;;;7.19;93.34
55759;BME280;41678;52.126;20.664;2023-04-07T18:11:35;100562.66;;;7.15;93.27
55759;BME280;41678;52.126;20.664;2023-04-07T18:16:55;100572.28;;;7.17;93.35
55759;BME280;41678;52.126;20.664;2023-04-07T18:22:25;100580.16;;;7.17;93.36
55759;BME280;41678;52.126;20.664;2023-04-07T18:27:46;100587.94;;;7.11;93.18
55759;BME280;41678;52.126;20.664;2023-04-07T18:33:05;100590.56;;;7.11;93.01
55759;BME280;41678;52.126;20.664;2023-04-07T18:38:25;100591.44;;;7.10;93.18
55759;BME280;41678;52.126;20.664;2023-04-07T18:43:44;100602.78;;;7.09;93.26
55759;BME280;41678;52.126;20.664;2023-04-07T18:49:07;100610.63;;;7.09;93.25
55759;BME280;41678;52.126;20.664;2023-04-07T18:54:27;100618.47;;;7.06;93.23
55759;BME280;41678;52.126;20.664;2023-04-07T18:59:47;100626.28;;;7.03;93.09
55759;BME280;41678;52.126;20.664;2023-04-07T19:05:06;100633.25;;;7.01;93.10
55759;BME280;41678;52.126;20.664;2023-04-07T19:10:26;100635.88;;;7.01;92.81
55759;BME280;41678;52.126;20.664;2023-04-07T19:15:46;100641.91;;;6.93;93.24
55759;BME280;41678;52.126;20.664;2023-04-07T19:21:05;100647.16;;;6.92;93.08
55759;BME280;41678;52.126;20.664;2023-04-07T19:26:26;100649.72;;;6.89;93.20
55759;BME280;41678;52.126;20.664;2023-04-07T19:31:47;100659.25;;;6.82;92.82
55759;BME280;41678;52.126;20.664;2023-04-07T19:37:07;100668.06;;;6.90;92.73
55759;BME280;41678;52.126;20.664;2023-04-07T19:42:27;100681.13;;;6.87;92.67
55759;BME280;41678;52.126;20.664;2023-04-07T19:47:47;100683.63;;;6.78;93.14
55759;BME280;41678;52.126;20.664;2023-04-07T19:53:11;100685.44;;;6.84;92.50
55759;BME280;41678;52.126;20.664;2023-04-07T19:58:34;100692.31;;;6.74;92.62
55759;BME280;41678;52.126;20.664;2023-04-07T20:03:56;100705.34;;;6.68;92.65
55759;BME280;41678;52.126;20.664;2023-04-07T20:09:15;100702.75;;;6.68;92.86
55759;BME280;41678;52.126;20.664;2023-04-07T20:14:35;100716.66;;;6.65;92.49
55759;BME280;41678;52.126;20.664;2023-04-07T20:19:56;100721.06;;;6.68;92.45
55759;BME280;41678;52.126;20.664;2023-04-07T20:25:15;100722.72;;;6.62;92.19
55759;BME280;41678;52.126;20.664;2023-04-07T20:30:35;100728.75;;;6.55;92.32
55759;BME280;41678;52.126;20.664;2023-04-07T20:35:55;100737.56;;;6.62;92.28
55759;BME280;41678;52.126;20.664;2023-04-07T20:41:14;100739.16;;;6.52;92.44
55759;BME280;41678;52.126;20.664;2023-04-07T20:46:37;100752.16;;;6.43;91.99
55759;BME280;41678;52.126;20.664;2023-04-07T20:51:57;100750.25;;;6.32;91.90
55759;BME280;41678;52.126;20.664;2023-04-07T20:57:17;100772.19;;;6.41;91.75
55759;BME280;41678;52.126;20.664;2023-04-07T21:02:37;100766.91;;;6.37;91.66
55759;BME280;41678;52.126;20.664;2023-04-07T21:07:56;100767.44;;;6.15;91.08
55759;BME280;41678;52.126;20.664;2023-04-07T21:13:16;100766.47;;;6.08;91.32
55759;BME280;41678;52.126;20.664;2023-04-07T21:18:36;100770.81;;;6.06;91.29
55759;BME280;41678;52.126;20.664;2023-04-07T21:23:55;100785.59;;;6.04;90.94
55759;BME280;41678;52.126;20.664;2023-04-07T21:29:15;100788.88;;;5.92;90.99
55759;BME280;41678;52.126;20.664;2023-04-07T21:34:34;100788.75;;;5.86;90.84
55759;BME280;41678;52.126;20.664;2023-04-07T21:39:54;100793.88;;;5.76;91.42
55759;BME280;41678;52.126;20.664;2023-04-07T21:45:14;100804.28;;;5.75;91.15
55759;BME280;41678;52.126;20.664;2023-04-07T21:50:35;100807.66;;;5.69;90.93
55759;BME280;41678;52.126;20.664;2023-04-07T21:55:55;100814.50;;;5.62;91.08
55759;BME280;41678;52.126;20.664;2023-04-07T22:01:16;100809.19;;;5.58;91.06
55759;BME280;41678;52.126;20.664;2023-04-07T22:06:35;100812.59;;;5.52;90.88
55759;BME280;41678;52.126;20.664;2023-04-07T22:11:55;100811.47;;;5.37;90.64
55759;BME280;41678;52.126;20.664;2023-04-07T22:17:15;100805.31;;;5.34;91.19
55759;BME280;41678;52.126;20.664;2023-04-07T22:22:36;100815.63;;;5.28;90.32
55759;BME280;41678;52.126;20.664;2023-04-07T22:27:55;100815.47;;;5.18;90.90
55759;BME280;41678;52.126;20.664;2023-04-07T22:33:15;100819.75;;;5.15;91.10
55759;BME280;41678;52.126;20.664;2023-04-07T22:38:34;100823.16;;;5.12;90.95
55759;BME280;41678;52.126;20.664;2023-04-07T22:43:54;100833.56;;;5.09;90.52
55759;BME280;41678;52.126;20.664;2023-04-07T22:49:14;100824.81;;;5.07;90.57
55759;BME280;41678;52.126;20.664;2023-04-07T22:54:33;100828.09;;;4.96;90.74
55759;BME280;41678;52.126;20.664;2023-04-07T22:59:53;100828.84;;;4.89;90.92
55759;BME280;41678;52.126;20.664;2023-04-07T23:05:13;100825.16;;;4.81;91.16
55759;BME280;41678;52.126;20.664;2023-04-07T23:10:32;100831.22;;;4.80;90.70
55759;BME280;41678;52.126;20.664;2023-04-07T23:15:52;100830.16;;;4.70;90.95
55759;BME280;41678;52.126;20.664;2023-04-07T23:21:12;100825.63;;;4.61;90.84
55759;BME280;41678;52.126;20.664;2023-04-07T23:26:31;100822.06;;;4.56;90.91
55759;BME280;41678;52.126;20.664;2023-04-07T23:31:51;100823.03;;;4.61;90.74
55759;BME280;41678;52.126;20.664;2023-04-07T23:37:11;100823.72;;;4.52;90.77
55759;BME280;41678;52.126;20.664;2023-04-07T23:42:30;100838.41;;;4.49;90.57
55759;BME280;41678;52.126;20.664;2023-04-07T23:47:50;100838.28;;;4.43;90.57
55759;BME280;41678;52.126;20.664;2023-04-07T23:53:09;100830.47;;;4.44;90.81
55759;BME280;41678;52.126;20.664;2023-04-07T23:58:28;100832.94;;;4.38;90.77
